Bluff, UT (84512)

4:59 AM MDT on July 29, 2014 (GMT -0600)
MesoWest MCCRACKEN MESA UT US SCAN (MRACU1) Elev 5318 ft | 37.43 °N, 109.33 °W | Change Station

Current weather conditions updated 59 minutes ago

Scattered Clouds
Scattered Clouds
66 °F
Feels Like 66 °F
N
4
Wind Variable Wind from ESE
Gusts 0.0 mph

Today is forecast to be Much Warmer than yesterday.

Today
High -- | Low -- °F
--% Chance of Precip.
Yesterday
High -- | Low -- °F
Precip. -- in
6:20 AM 8:28 PM
Waxing Crescent, 6% visible
Pressure 30.38 in
Visibility 10.0 miles
Clouds Scattered Clouds 10000 ft
Dew Point 58 °F
Humidity 77%
Rainfall -999.00 in
Snow Depth Not available.
UV 0 out of 12
Pollen 3.20 out of 12
Air Quality Not available.
Flu Activity Not available.
METAR KBDG 291035Z AUTO 06004KT 10SM SCT100 18/14 A3038 RMK AO1 T01780135

More Conditions Fewer Conditions

Pressure 30.38 in
Visibility 10.0 miles
Clouds Scattered Clouds 10000 ft
Dew Point 58 °F
Humidity 77%
Rainfall -999.00 in
Snow Depth Not available.
UV 0 out of 12
Pollen 3.20 out of 12
Air Quality Not available.
Flu Activity Not available.
METAR KBDG 291035Z AUTO 06004KT 10SM SCT100 18/14 A3038 RMK AO1 T01780135

More Conditions Fewer Conditions

10-Day Weather Forecast

Almanac

Astronomy

Jul. 29, 2014 Rise Set
Actual Time 6:20 AM MDT 8:28 PM MDT
Civil Twilight 5:51 AM MDT 8:57 PM MDT
Nautical Twilight 5:15 AM MDT 9:32 PM MDT
Astronomical Twilight 4:37 AM MDT 10:11 PM MDT
Moon 8:55 AM MDT 9:47 PM MDT
Length of Visible Light 15h 06m
Length of Day
14h 08m
Tomorrow will be 1m 43s shorter.
Waxing Crescent, 6% of the Moon is Illuminated
Today
Waxing Crescent
Aug 3
First Quarter
Aug 10
Full
Aug 17
Last Quarter
Aug 25
New

Today's Extremes

State Highs State Lows

Community

WunderPhotos

Upload Photos

1,738,683 photos uploaded!

Nearby

Snow Depth

Station Depth Elevation
Lasal Mountain 0 in 9850 ft
Clayton Springs 0 in 10000 ft
Black Flat-U.M. Creek 1 in 9400 ft
Agua Canyon 3 in 8900 ft
Box Creek 1 in 9800 ft

Earthquake Activity

City Distance Mag. Time & Date
No recent earthquake activity has been reported nearby.
Minimum magnitude displayed is 2.5.

Coastal Water Temperatures

Place Temperature
No Stations Reporting

Nearby Weather Stations

Station Location Temp. Dew Point Humidity Wind Precip. Elev Updated Type
MesoWest MCCRACKEN MESA , Montezuma Creek, UT 66 °F 58 °F 77% ESE  at  4 mph 0.00 in / hr 5318 ft 4:00 AM MDT MADIS
RAWS KANE GULCH UT, Bluff, UT 61 °F 58 °F 89% East  at  3 mph 0.00 in / hr 6500 ft 3:42 AM MDT MADIS

Show More Stations Show Fewer Stations